sensor_id;sensor_type;location;lat;lon;timestamp;temperature;humidity
9167;DHT22;4618;48.818;9.088;2023-02-18T00:00:11;12.30;99.90
9167;DHT22;4618;48.818;9.088;2023-02-18T00:02:37;12.30;99.90
9167;DHT22;4618;48.818;9.088;2023-02-18T00:05:03;12.30;99.90
9167;DHT22;4618;48.818;9.088;2023-02-18T00:07:33;12.20;99.90
9167;DHT22;4618;48.818;9.088;2023-02-18T00:09:59;12.20;99.90
9167;DHT22;4618;48.818;9.088;2023-02-18T00:12:25;12.20;99.90
9167;DHT22;4618;48.818;9.088;2023-02-18T00:14:50;12.20;99.90
9167;DHT22;4618;48.818;9.088;2023-02-18T00:17:16;12.30;99.90
9167;DHT22;4618;48.818;9.088;2023-02-18T00:19:41;12.30;99.90
9167;DHT22;4618;48.818;9.088;2023-02-18T00:22:07;12.20;99.90
9167;DHT22;4618;48.818;9.088;2023-02-18T00:24:33;12.20;99.90
9167;DHT22;4618;48.818;9.088;2023-02-18T00:26:58;12.30;99.90
9167;DHT22;4618;48.818;9.088;2023-02-18T00:29:24;12.20;99.90
9167;DHT22;4618;48.818;9.088;2023-02-18T00:31:49;12.20;99.90
9167;DHT22;4618;48.818;9.088;2023-02-18T00:34:15;12.20;99.90
9167;DHT22;4618;48.818;9.088;2023-02-18T00:36:41;12.20;99.90
9167;DHT22;4618;48.818;9.088;2023-02-18T00:39:08;12.20;99.90
9167;DHT22;4618;48.818;9.088;2023-02-18T00:41:34;12.10;99.90
9167;DHT22;4618;48.818;9.088;2023-02-18T00:44:00;12.20;99.90
9167;DHT22;4618;48.818;9.088;2023-02-18T00:46:27;12.20;99.90
9167;DHT22;4618;48.818;9.088;2023-02-18T00:48:53;12.10;99.90
9167;DHT22;4618;48.818;9.088;2023-02-18T00:51:19;12.10;1.00
9167;DHT22;4618;48.818;9.088;2023-02-18T00:53:44;12.10;1.00
9167;DHT22;4618;48.818;9.088;2023-02-18T00:56:10;12.20;99.90
9167;DHT22;4618;48.818;9.088;2023-02-18T00:58:36;12.20;99.90
9167;DHT22;4618;48.818;9.088;2023-02-18T01:01:02;12.10;99.90
9167;DHT22;4618;48.818;9.088;2023-02-18T01:03:28;12.10;99.90
9167;DHT22;4618;48.818;9.088;2023-02-18T01:05:54;12.10;99.90
9167;DHT22;4618;48.818;9.088;2023-02-18T01:08:20;12.20;99.90
9167;DHT22;4618;48.818;9.088;2023-02-18T01:10:48;12.20;99.90
9167;DHT22;4618;48.818;9.088;2023-02-18T01:13:15;12.10;1.00
9167;DHT22;4618;48.818;9.088;2023-02-18T01:15:41;12.10;1.00
9167;DHT22;4618;48.818;9.088;2023-02-18T01:18:08;12.00;1.00
9167;DHT22;4618;48.818;9.088;2023-02-18T01:20:37;12.00;1.00
9167;DHT22;4618;48.818;9.088;2023-02-18T01:23:03;11.90;1.00
9167;DHT22;4618;48.818;9.088;2023-02-18T01:25:30;11.80;1.00
9167;DHT22;4618;48.818;9.088;2023-02-18T01:27:56;11.80;1.00
9167;DHT22;4618;48.818;9.088;2023-02-18T01:30:22;11.70;1.00
9167;DHT22;4618;48.818;9.088;2023-02-18T01:32:47;11.70;1.00
9167;DHT22;4618;48.818;9.088;2023-02-18T01:35:15;11.70;1.00
9167;DHT22;4618;48.818;9.088;2023-02-18T01:37:41;11.60;14.90
9167;DHT22;4618;48.818;9.088;2023-02-18T01:40:08;11.60;85.70
9167;DHT22;4618;48.818;9.088;2023-02-18T01:42:34;11.50;99.90
9167;DHT22;4618;48.818;9.088;2023-02-18T01:48:05;11.50;99.90
9167;DHT22;4618;48.818;9.088;2023-02-18T01:50:35;11.50;99.90
9167;DHT22;4618;48.818;9.088;2023-02-18T01:53:01;11.50;99.90
9167;DHT22;4618;48.818;9.088;2023-02-18T01:55:27;11.50;99.90
9167;DHT22;4618;48.818;9.088;2023-02-18T01:57:53;11.40;99.90
9167;DHT22;4618;48.818;9.088;2023-02-18T02:00:19;11.40;99.90
9167;DHT22;4618;48.818;9.088;2023-02-18T02:02:50;11.40;99.90
9167;DHT22;4618;48.818;9.088;2023-02-18T02:05:18;11.50;99.90
9167;DHT22;4618;48.818;9.088;2023-02-18T02:07:45;11.40;99.90
9167;DHT22;4618;48.818;9.088;2023-02-18T02:10:12;11.40;99.90
9167;DHT22;4618;48.818;9.088;2023-02-18T02:15:57;11.40;99.90
9167;DHT22;4618;48.818;9.088;2023-02-18T02:24:28;11.50;99.90
9167;DHT22;4618;48.818;9.088;2023-02-18T02:27:12;11.50;99.90
9167;DHT22;4618;48.818;9.088;2023-02-18T02:35:25;11.40;99.90
9167;DHT22;4618;48.818;9.088;2023-02-18T02:40:59;11.50;99.90
9167;DHT22;4618;48.818;9.088;2023-02-18T02:43:30;11.50;99.90
9167;DHT22;4618;48.818;9.088;2023-02-18T02:46:03;11.60;99.90
9167;DHT22;4618;48.818;9.088;2023-02-18T02:51:20;11.60;30.30
9167;DHT22;4618;48.818;9.088;2023-02-18T02:53:48;11.60;38.90
9167;DHT22;4618;48.818;9.088;2023-02-18T02:56:15;11.50;89.80
9167;DHT22;4618;48.818;9.088;2023-02-18T02:58:42;11.50;99.90
9167;DHT22;4618;48.818;9.088;2023-02-18T03:01:18;11.40;99.90
9167;DHT22;4618;48.818;9.088;2023-02-18T03:07:44;11.50;99.90
9167;DHT22;4618;48.818;9.088;2023-02-18T03:12:37;11.40;99.90
9167;DHT22;4618;48.818;9.088;2023-02-18T03:15:23;11.40;99.90
9167;DHT22;4618;48.818;9.088;2023-02-18T03:18:06;11.40;97.20
9167;DHT22;4618;48.818;9.088;2023-02-18T03:20:42;11.40;99.90
9167;DHT22;4618;48.818;9.088;2023-02-18T03:23:12;11.40;60.60
9167;DHT22;4618;48.818;9.088;2023-02-18T03:25:40;11.30;15.70
9167;DHT22;4618;48.818;9.088;2023-02-18T03:28:16;11.40;1.00
9167;DHT22;4618;48.818;9.088;2023-02-18T03:30:52;11.50;1.00
9167;DHT22;4618;48.818;9.088;2023-02-18T03:33:25;11.30;1.00
9167;DHT22;4618;48.818;9.088;2023-02-18T03:35:52;11.30;1.00
9167;DHT22;4618;48.818;9.088;2023-02-18T03:38:21;11.30;1.00
9167;DHT22;4618;48.818;9.088;2023-02-18T03:40:48;11.20;1.00
9167;DHT22;4618;48.818;9.088;2023-02-18T03:43:14;11.10;1.00
9167;DHT22;4618;48.818;9.088;2023-02-18T03:45:39;11.10;92.70
9167;DHT22;4618;48.818;9.088;2023-02-18T03:48:05;11.00;93.40
9167;DHT22;4618;48.818;9.088;2023-02-18T03:50:31;10.90;99.90
9167;DHT22;4618;48.818;9.088;2023-02-18T03:52:56;10.90;99.90
9167;DHT22;4618;48.818;9.088;2023-02-18T03:55:22;10.90;99.90
9167;DHT22;4618;48.818;9.088;2023-02-18T03:57:48;10.90;99.90
9167;DHT22;4618;48.818;9.088;2023-02-18T04:00:14;10.90;99.90
9167;DHT22;4618;48.818;9.088;2023-02-18T04:02:40;10.90;99.90
9167;DHT22;4618;48.818;9.088;2023-02-18T04:05:06;10.90;99.90
9167;DHT22;4618;48.818;9.088;2023-02-18T04:07:32;11.00;99.90
9167;DHT22;4618;48.818;9.088;2023-02-18T04:09:58;11.00;99.90
9167;DHT22;4618;48.818;9.088;2023-02-18T04:12:23;11.10;99.90
9167;DHT22;4618;48.818;9.088;2023-02-18T04:14:49;11.10;99.90
9167;DHT22;4618;48.818;9.088;2023-02-18T04:17:14;11.20;64.50
9167;DHT22;4618;48.818;9.088;2023-02-18T04:19:40;11.30;1.00
9167;DHT22;4618;48.818;9.088;2023-02-18T04:22:05;11.40;1.00
9167;DHT22;4618;48.818;9.088;2023-02-18T04:24:31;11.40;1.00
9167;DHT22;4618;48.818;9.088;2023-02-18T04:26:56;11.40;1.00
9167;DHT22;4618;48.818;9.088;2023-02-18T04:29:22;11.40;1.00
9167;DHT22;4618;48.818;9.088;2023-02-18T04:31:48;11.30;1.00
9167;DHT22;4618;48.818;9.088;2023-02-18T04:34:13;11.30;1.00
9167;DHT22;4618;48.818;9.088;2023-02-18T04:36:39;11.20;1.00
9167;DHT22;4618;48.818;9.088;2023-02-18T04:39:04;11.20;1.00
9167;DHT22;4618;48.818;9.088;2023-02-18T04:41:30;11.10;1.00
9167;DHT22;4618;48.818;9.088;2023-02-18T04:43:55;11.20;1.00
9167;DHT22;4618;48.818;9.088;2023-02-18T04:46:21;11.10;1.00
9167;DHT22;4618;48.818;9.088;2023-02-18T04:48:47;11.00;1.00
9167;DHT22;4618;48.818;9.088;2023-02-18T04:51:12;11.00;1.00
9167;DHT22;4618;48.818;9.088;2023-02-18T04:53:38;10.90;1.00
9167;DHT22;4618;48.818;9.088;2023-02-18T04:56:03;10.90;1.00
9167;DHT22;4618;48.818;9.088;2023-02-18T04:58:29;10.90;1.00
9167;DHT22;4618;48.818;9.088;2023-02-18T05:00:59;10.80;15.90
9167;DHT22;4618;48.818;9.088;2023-02-18T05:03:25;10.70;44.00
9167;DHT22;4618;48.818;9.088;2023-02-18T05:05:50;10.70;73.40
9167;DHT22;4618;48.818;9.088;2023-02-18T05:08:16;10.80;80.30
9167;DHT22;4618;48.818;9.088;2023-02-18T05:10:43;10.70;66.80
9167;DHT22;4618;48.818;9.088;2023-02-18T05:13:09;10.80;17.30
9167;DHT22;4618;48.818;9.088;2023-02-18T05:15:34;10.80;1.00
9167;DHT22;4618;48.818;9.088;2023-02-18T05:18:00;10.80;1.00
9167;DHT22;4618;48.818;9.088;2023-02-18T05:20:26;10.90;1.00
9167;DHT22;4618;48.818;9.088;2023-02-18T05:22:51;10.90;1.00
9167;DHT22;4618;48.818;9.088;2023-02-18T05:25:17;11.00;1.00
9167;DHT22;4618;48.818;9.088;2023-02-18T05:27:43;10.90;1.00
9167;DHT22;4618;48.818;9.088;2023-02-18T05:30:08;10.70;57.90
9167;DHT22;4618;48.818;9.088;2023-02-18T05:32:34;10.60;99.90
9167;DHT22;4618;48.818;9.088;2023-02-18T05:34:59;10.50;99.90
9167;DHT22;4618;48.818;9.088;2023-02-18T05:37:25;10.40;1.00
9167;DHT22;4618;48.818;9.088;2023-02-18T05:39:50;10.40;1.00
9167;DHT22;4618;48.818;9.088;2023-02-18T05:42:16;10.40;1.00
9167;DHT22;4618;48.818;9.088;2023-02-18T05:44:42;10.30;1.00
9167;DHT22;4618;48.818;9.088;2023-02-18T05:47:10;10.30;1.00
9167;DHT22;4618;48.818;9.088;2023-02-18T05:49:37;10.30;1.00
9167;DHT22;4618;48.818;9.088;2023-02-18T05:52:03;10.30;96.90
9167;DHT22;4618;48.818;9.088;2023-02-18T05:54:29;10.40;28.60
9167;DHT22;4618;48.818;9.088;2023-02-18T05:56:54;10.40;1.00
9167;DHT22;4618;48.818;9.088;2023-02-18T05:59:20;10.50;1.00
9167;DHT22;4618;48.818;9.088;2023-02-18T06:01:46;10.50;7.30
9167;DHT22;4618;48.818;9.088;2023-02-18T06:04:13;10.50;1.00
9167;DHT22;4618;48.818;9.088;2023-02-18T06:06:39;10.60;1.00
9167;DHT22;4618;48.818;9.088;2023-02-18T06:09:06;10.60;1.00
9167;DHT22;4618;48.818;9.088;2023-02-18T06:11:33;10.70;1.00
9167;DHT22;4618;48.818;9.088;2023-02-18T06:13:59;10.60;1.00
9167;DHT22;4618;48.818;9.088;2023-02-18T06:16:25;10.60;86.10
9167;DHT22;4618;48.818;9.088;2023-02-18T06:18:51;10.70;1.00
9167;DHT22;4618;48.818;9.088;2023-02-18T06:21:17;10.70;1.00
9167;DHT22;4618;48.818;9.088;2023-02-18T06:23:42;10.70;1.00
9167;DHT22;4618;48.818;9.088;2023-02-18T06:26:08;10.60;27.40
9167;DHT22;4618;48.818;9.088;2023-02-18T06:28:34;10.60;99.90
9167;DHT22;4618;48.818;9.088;2023-02-18T06:30:59;10.60;99.90
9167;DHT22;4618;48.818;9.088;2023-02-18T06:33:25;10.60;99.90
9167;DHT22;4618;48.818;9.088;2023-02-18T06:35:59;10.60;99.90
9167;DHT22;4618;48.818;9.088;2023-02-18T06:38:26;10.70;99.90
9167;DHT22;4618;48.818;9.088;2023-02-18T06:40:51;10.70;88.60
9167;DHT22;4618;48.818;9.088;2023-02-18T06:43:18;10.70;74.50
9167;DHT22;4618;48.818;9.088;2023-02-18T06:45:44;10.80;1.00
9167;DHT22;4618;48.818;9.088;2023-02-18T06:48:10;11.00;1.00
9167;DHT22;4618;48.818;9.088;2023-02-18T06:50:35;10.90;1.00
9167;DHT22;4618;48.818;9.088;2023-02-18T06:53:01;10.90;1.00
9167;DHT22;4618;48.818;9.088;2023-02-18T06:55:27;11.00;1.00
9167;DHT22;4618;48.818;9.088;2023-02-18T06:57:52;11.10;1.00
9167;DHT22;4618;48.818;9.088;2023-02-18T07:00:18;11.20;99.90
9167;DHT22;4618;48.818;9.088;2023-02-18T07:02:44;11.20;99.90
9167;DHT22;4618;48.818;9.088;2023-02-18T07:05:09;11.20;99.90
9167;DHT22;4618;48.818;9.088;2023-02-18T07:07:35;11.30;99.90
9167;DHT22;4618;48.818;9.088;2023-02-18T07:10:01;11.30;98.40
9167;DHT22;4618;48.818;9.088;2023-02-18T07:12:26;11.40;79.70
9167;DHT22;4618;48.818;9.088;2023-02-18T07:14:52;11.40;83.30
9167;DHT22;4618;48.818;9.088;2023-02-18T07:17:18;11.40;41.30
9167;DHT22;4618;48.818;9.088;2023-02-18T07:19:44;11.30;11.20
9167;DHT22;4618;48.818;9.088;2023-02-18T07:22:10;11.40;1.00
9167;DHT22;4618;48.818;9.088;2023-02-18T07:24:35;11.40;1.00
9167;DHT22;4618;48.818;9.088;2023-02-18T07:27:01;11.40;1.00
9167;DHT22;4618;48.818;9.088;2023-02-18T07:29:27;11.50;1.00
9167;DHT22;4618;48.818;9.088;2023-02-18T07:31:52;11.50;1.00
9167;DHT22;4618;48.818;9.088;2023-02-18T07:34:18;11.50;1.00
9167;DHT22;4618;48.818;9.088;2023-02-18T07:36:44;11.50;1.00
9167;DHT22;4618;48.818;9.088;2023-02-18T07:39:10;11.60;1.00
9167;DHT22;4618;48.818;9.088;2023-02-18T07:41:35;11.60;1.00
9167;DHT22;4618;48.818;9.088;2023-02-18T07:44:01;11.70;1.00
9167;DHT22;4618;48.818;9.088;2023-02-18T07:46:27;11.80;1.00
9167;DHT22;4618;48.818;9.088;2023-02-18T07:48:52;11.90;99.90
9167;DHT22;4618;48.818;9.088;2023-02-18T07:51:18;12.00;99.90
9167;DHT22;4618;48.818;9.088;2023-02-18T07:53:43;12.10;99.90
9167;DHT22;4618;48.818;9.088;2023-02-18T07:56:09;12.20;99.90
9167;DHT22;4618;48.818;9.088;2023-02-18T07:58:36;12.30;41.60
9167;DHT22;4618;48.818;9.088;2023-02-18T08:01:20;12.30;1.00
9167;DHT22;4618;48.818;9.088;2023-02-18T08:03:45;12.50;1.00
9167;DHT22;4618;48.818;9.088;2023-02-18T08:06:25;12.60;1.00
9167;DHT22;4618;48.818;9.088;2023-02-18T08:08:50;12.60;1.00
9167;DHT22;4618;48.818;9.088;2023-02-18T08:11:16;12.70;1.00
9167;DHT22;4618;48.818;9.088;2023-02-18T08:13:42;12.70;1.00
9167;DHT22;4618;48.818;9.088;2023-02-18T08:16:08;12.60;1.00
9167;DHT22;4618;48.818;9.088;2023-02-18T08:18:34;12.60;1.00
9167;DHT22;4618;48.818;9.088;2023-02-18T08:20:59;12.70;1.00
9167;DHT22;4618;48.818;9.088;2023-02-18T08:23:25;12.80;1.00
9167;DHT22;4618;48.818;9.088;2023-02-18T08:25:52;12.80;1.00
9167;DHT22;4618;48.818;9.088;2023-02-18T08:28:23;12.90;1.00
9167;DHT22;4618;48.818;9.088;2023-02-18T08:30:52;12.80;1.00
9167;DHT22;4618;48.818;9.088;2023-02-18T08:33:19;12.90;1.00
9167;DHT22;4618;48.818;9.088;2023-02-18T08:35:46;12.90;1.00
9167;DHT22;4618;48.818;9.088;2023-02-18T08:38:12;12.90;1.00
9167;DHT22;4618;48.818;9.088;2023-02-18T08:40:38;13.00;1.00
9167;DHT22;4618;48.818;9.088;2023-02-18T08:43:05;13.00;1.00
9167;DHT22;4618;48.818;9.088;2023-02-18T08:45:31;13.10;1.00
9167;DHT22;4618;48.818;9.088;2023-02-18T08:47:57;13.10;1.00
9167;DHT22;4618;48.818;9.088;2023-02-18T08:50:22;13.10;1.00
9167;DHT22;4618;48.818;9.088;2023-02-18T08:52:51;13.10;1.00
9167;DHT22;4618;48.818;9.088;2023-02-18T08:55:17;13.10;1.00
9167;DHT22;4618;48.818;9.088;2023-02-18T08:57:47;13.10;1.00
9167;DHT22;4618;48.818;9.088;2023-02-18T09:00:15;13.10;1.00
9167;DHT22;4618;48.818;9.088;2023-02-18T09:02:41;13.20;1.00
9167;DHT22;4618;48.818;9.088;2023-02-18T09:05:07;13.20;1.00
9167;DHT22;4618;48.818;9.088;2023-02-18T09:07:35;13.20;1.00
9167;DHT22;4618;48.818;9.088;2023-02-18T09:10:00;13.30;1.00
9167;DHT22;4618;48.818;9.088;2023-02-18T09:12:27;13.30;1.00
9167;DHT22;4618;48.818;9.088;2023-02-18T09:14:53;13.40;99.90
9167;DHT22;4618;48.818;9.088;2023-02-18T09:17:19;13.40;1.00
9167;DHT22;4618;48.818;9.088;2023-02-18T09:19:44;13.60;99.90
9167;DHT22;4618;48.818;9.088;2023-02-18T09:22:10;13.70;99.90
9167;DHT22;4618;48.818;9.088;2023-02-18T09:24:36;13.70;99.90
9167;DHT22;4618;48.818;9.088;2023-02-18T09:27:02;13.80;99.90
9167;DHT22;4618;48.818;9.088;2023-02-18T09:29:28;13.90;99.90
9167;DHT22;4618;48.818;9.088;2023-02-18T09:31:54;14.10;99.90
9167;DHT22;4618;48.818;9.088;2023-02-18T09:34:19;14.10;99.90
9167;DHT22;4618;48.818;9.088;2023-02-18T09:36:45;14.10;99.90
9167;DHT22;4618;48.818;9.088;2023-02-18T09:39:10;14.00;99.90
9167;DHT22;4618;48.818;9.088;2023-02-18T09:41:41;13.80;99.90
9167;DHT22;4618;48.818;9.088;2023-02-18T09:44:26;13.90;99.90
9167;DHT22;4618;48.818;9.088;2023-02-18T09:47:17;13.80;99.90
9167;DHT22;4618;48.818;9.088;2023-02-18T09:49:50;13.90;99.90
9167;DHT22;4618;48.818;9.088;2023-02-18T09:52:23;14.10;99.90
9167;DHT22;4618;48.818;9.088;2023-02-18T09:54:50;14.50;99.90
9167;DHT22;4618;48.818;9.088;2023-02-18T09:57:29;14.50;99.90
9167;DHT22;4618;48.818;9.088;2023-02-18T10:00:00;14.30;99.90
9167;DHT22;4618;48.818;9.088;2023-02-18T10:02:27;14.30;99.90
9167;DHT22;4618;48.818;9.088;2023-02-18T10:04:53;14.70;99.90
9167;DHT22;4618;48.818;9.088;2023-02-18T10:07:29;14.60;99.90
9167;DHT22;4618;48.818;9.088;2023-02-18T10:10:00;14.30;99.90
9167;DHT22;4618;48.818;9.088;2023-02-18T10:12:29;14.10;99.90
9167;DHT22;4618;48.818;9.088;2023-02-18T10:14:59;14.00;99.90
9167;DHT22;4618;48.818;9.088;2023-02-18T10:17:28;13.90;99.90
9167;DHT22;4618;48.818;9.088;2023-02-18T10:19:55;13.90;99.90
9167;DHT22;4618;48.818;9.088;2023-02-18T10:22:23;14.10;99.90
9167;DHT22;4618;48.818;9.088;2023-02-18T10:24:57;14.10;99.90
9167;DHT22;4618;48.818;9.088;2023-02-18T10:27:30;14.20;99.90
9167;DHT22;4618;48.818;9.088;2023-02-18T10:30:23;14.30;99.90
9167;DHT22;4618;48.818;9.088;2023-02-18T10:32:54;14.30;99.90
9167;DHT22;4618;48.818;9.088;2023-02-18T10:35:29;14.20;99.90
9167;DHT22;4618;48.818;9.088;2023-02-18T10:40:59;14.10;99.90
9167;DHT22;4618;48.818;9.088;2023-02-18T10:45:59;14.20;99.90
9167;DHT22;4618;48.818;9.088;2023-02-18T10:51:21;14.30;99.90
9167;DHT22;4618;48.818;9.088;2023-02-18T10:53:50;14.20;99.90
9167;DHT22;4618;48.818;9.088;2023-02-18T10:59:21;14.50;99.90
9167;DHT22;4618;48.818;9.088;2023-02-18T11:01:58;14.90;99.90
9167;DHT22;4618;48.818;9.088;2023-02-18T11:04:38;14.80;99.90
9167;DHT22;4618;48.818;9.088;2023-02-18T11:09:51;14.80;99.90
9167;DHT22;4618;48.818;9.088;2023-02-18T11:12:32;14.80;99.90
9167;DHT22;4618;48.818;9.088;2023-02-18T11:17:42;14.70;99.90
9167;DHT22;4618;48.818;9.088;2023-02-18T11:20:33;14.90;99.90
9167;DHT22;4618;48.818;9.088;2023-02-18T11:23:16;15.00;99.90
9167;DHT22;4618;48.818;9.088;2023-02-18T11:25:57;15.20;99.90
9167;DHT22;4618;48.818;9.088;2023-02-18T11:31:04;14.70;99.90
9167;DHT22;4618;48.818;9.088;2023-02-18T11:33:38;15.10;99.90
9167;DHT22;4618;48.818;9.088;2023-02-18T11:38:56;15.00;99.90
9167;DHT22;4618;48.818;9.088;2023-02-18T11:41:41;15.00;99.90
9167;DHT22;4618;48.818;9.088;2023-02-18T11:44:21;15.00;99.90
9167;DHT22;4618;48.818;9.088;2023-02-18T11:49:34;14.80;99.90
9167;DHT22;4618;48.818;9.088;2023-02-18T11:52:19;14.70;99.90
9167;DHT22;4618;48.818;9.088;2023-02-18T11:57:44;14.70;99.90
9167;DHT22;4618;48.818;9.088;2023-02-18T12:05:51;14.90;99.90
9167;DHT22;4618;48.818;9.088;2023-02-18T12:08:21;15.00;99.90
9167;DHT22;4618;48.818;9.088;2023-02-18T12:10:53;15.10;99.90
9167;DHT22;4618;48.818;9.088;2023-02-18T12:13:36;15.00;99.90
9167;DHT22;4618;48.818;9.088;2023-02-18T12:16:18;14.80;99.90
9167;DHT22;4618;48.818;9.088;2023-02-18T12:24:53;14.90;99.90
9167;DHT22;4618;48.818;9.088;2023-02-18T12:27:43;14.80;99.90
9167;DHT22;4618;48.818;9.088;2023-02-18T12:30:35;14.90;99.90
9167;DHT22;4618;48.818;9.088;2023-02-18T12:33:26;14.70;99.90
9167;DHT22;4618;48.818;9.088;2023-02-18T12:39:21;14.40;99.90
9167;DHT22;4618;48.818;9.088;2023-02-18T12:45:03;14.30;99.90
9167;DHT22;4618;48.818;9.088;2023-02-18T12:47:50;14.10;99.90
9167;DHT22;4618;48.818;9.088;2023-02-18T12:56:41;14.00;99.90
9167;DHT22;4618;48.818;9.088;2023-02-18T12:58:51;14.10;99.90
9167;DHT22;4618;48.818;9.088;2023-02-18T13:01:35;14.00;99.90
9167;DHT22;4618;48.818;9.088;2023-02-18T13:10:23;13.90;99.90
9167;DHT22;4618;48.818;9.088;2023-02-18T13:13:12;13.80;99.90
9167;DHT22;4618;48.818;9.088;2023-02-18T13:15:42;13.80;99.90
9167;DHT22;4618;48.818;9.088;2023-02-18T13:18:15;13.70;99.90
9167;DHT22;4618;48.818;9.088;2023-02-18T13:20:57;13.70;99.90
9167;DHT22;4618;48.818;9.088;2023-02-18T13:23:28;13.70;99.90
9167;DHT22;4618;48.818;9.088;2023-02-18T13:26:01;13.70;99.90
9167;DHT22;4618;48.818;9.088;2023-02-18T13:28:50;13.70;99.90
9167;DHT22;4618;48.818;9.088;2023-02-18T13:34:24;13.80;99.90
9167;DHT22;4618;48.818;9.088;2023-02-18T13:39:52;13.80;99.90
9167;DHT22;4618;48.818;9.088;2023-02-18T13:42:39;13.90;99.90
9167;DHT22;4618;48.818;9.088;2023-02-18T13:45:27;13.90;99.90
9167;DHT22;4618;48.818;9.088;2023-02-18T13:47:54;14.00;99.90
9167;DHT22;4618;48.818;9.088;2023-02-18T13:50:27;14.10;99.90
9167;DHT22;4618;48.818;9.088;2023-02-18T13:55:39;14.10;99.90
9167;DHT22;4618;48.818;9.088;2023-02-18T13:58:15;14.00;99.90
9167;DHT22;4618;48.818;9.088;2023-02-18T14:00:49;14.10;99.90
9167;DHT22;4618;48.818;9.088;2023-02-18T14:08:39;14.50;99.90
9167;DHT22;4618;48.818;9.088;2023-02-18T14:11:23;14.60;99.90
9167;DHT22;4618;48.818;9.088;2023-02-18T14:16:24;14.50;99.90
9167;DHT22;4618;48.818;9.088;2023-02-18T14:18:58;14.40;99.90
9167;DHT22;4618;48.818;9.088;2023-02-18T14:21:39;14.40;99.90
9167;DHT22;4618;48.818;9.088;2023-02-18T14:24:06;14.40;99.90
9167;DHT22;4618;48.818;9.088;2023-02-18T14:26:44;14.40;99.90
9167;DHT22;4618;48.818;9.088;2023-02-18T14:29:30;14.40;99.90
9167;DHT22;4618;48.818;9.088;2023-02-18T14:32:00;14.40;99.90
9167;DHT22;4618;48.818;9.088;2023-02-18T14:40:24;14.40;99.90
9167;DHT22;4618;48.818;9.088;2023-02-18T14:45:55;14.60;99.90
9167;DHT22;4618;48.818;9.088;2023-02-18T14:50:57;14.30;99.90
9167;DHT22;4618;48.818;9.088;2023-02-18T14:53:25;14.30;99.90
9167;DHT22;4618;48.818;9.088;2023-02-18T14:55:58;14.20;99.90
9167;DHT22;4618;48.818;9.088;2023-02-18T14:58:33;14.20;99.90
9167;DHT22;4618;48.818;9.088;2023-02-18T15:01:22;14.20;99.90
9167;DHT22;4618;48.818;9.088;2023-02-18T15:03:50;14.30;99.90
9167;DHT22;4618;48.818;9.088;2023-02-18T15:06:23;14.20;99.90
9167;DHT22;4618;48.818;9.088;2023-02-18T15:08:49;14.30;99.90
9167;DHT22;4618;48.818;9.088;2023-02-18T15:11:15;14.40;99.90
9167;DHT22;4618;48.818;9.088;2023-02-18T15:13:43;14.60;99.90
9167;DHT22;4618;48.818;9.088;2023-02-18T15:16:15;14.60;99.90
9167;DHT22;4618;48.818;9.088;2023-02-18T15:18:48;14.40;99.90
9167;DHT22;4618;48.818;9.088;2023-02-18T15:21:25;14.20;99.90
9167;DHT22;4618;48.818;9.088;2023-02-18T15:23:52;14.00;99.90
9167;DHT22;4618;48.818;9.088;2023-02-18T15:26:17;13.90;99.90
9167;DHT22;4618;48.818;9.088;2023-02-18T15:28:58;13.90;99.90
9167;DHT22;4618;48.818;9.088;2023-02-18T15:31:25;13.80;99.90
9167;DHT22;4618;48.818;9.088;2023-02-18T15:33:51;13.80;99.90
9167;DHT22;4618;48.818;9.088;2023-02-18T15:36:17;13.60;99.90
9167;DHT22;4618;48.818;9.088;2023-02-18T15:38:42;13.50;99.90
9167;DHT22;4618;48.818;9.088;2023-02-18T15:41:15;13.40;99.90
9167;DHT22;4618;48.818;9.088;2023-02-18T15:44:01;13.30;99.90
9167;DHT22;4618;48.818;9.088;2023-02-18T15:46:28;13.20;99.90
9167;DHT22;4618;48.818;9.088;2023-02-18T15:48:55;13.20;99.90
9167;DHT22;4618;48.818;9.088;2023-02-18T15:51:25;13.30;99.90
9167;DHT22;4618;48.818;9.088;2023-02-18T15:53:53;13.30;99.90
9167;DHT22;4618;48.818;9.088;2023-02-18T15:56:41;13.20;99.90
9167;DHT22;4618;48.818;9.088;2023-02-18T15:59:12;13.10;99.90
9167;DHT22;4618;48.818;9.088;2023-02-18T16:01:41;13.10;99.90
9167;DHT22;4618;48.818;9.088;2023-02-18T16:04:07;13.00;99.90
9167;DHT22;4618;48.818;9.088;2023-02-18T16:06:38;13.10;99.90
9167;DHT22;4618;48.818;9.088;2023-02-18T16:09:17;13.10;99.90
9167;DHT22;4618;48.818;9.088;2023-02-18T16:11:46;13.10;99.90
9167;DHT22;4618;48.818;9.088;2023-02-18T16:14:41;13.00;99.90
9167;DHT22;4618;48.818;9.088;2023-02-18T16:17:16;12.90;99.90
9167;DHT22;4618;48.818;9.088;2023-02-18T16:19:58;12.90;99.90
9167;DHT22;4618;48.818;9.088;2023-02-18T16:24:59;12.80;99.90
9167;DHT22;4618;48.818;9.088;2023-02-18T16:27:33;12.80;99.90
9167;DHT22;4618;48.818;9.088;2023-02-18T16:30:03;12.70;99.90
9167;DHT22;4618;48.818;9.088;2023-02-18T16:32:29;12.70;99.90
9167;DHT22;4618;48.818;9.088;2023-02-18T16:34:55;12.70;99.90
9167;DHT22;4618;48.818;9.088;2023-02-18T16:37:20;12.70;99.90
9167;DHT22;4618;48.818;9.088;2023-02-18T16:42:52;12.60;1.00
9167;DHT22;4618;48.818;9.088;2023-02-18T16:45:30;12.60;1.00
9167;DHT22;4618;48.818;9.088;2023-02-18T16:47:56;12.60;1.00
9167;DHT22;4618;48.818;9.088;2023-02-18T16:50:22;12.60;1.00
9167;DHT22;4618;48.818;9.088;2023-02-18T16:52:48;12.60;1.00
9167;DHT22;4618;48.818;9.088;2023-02-18T16:55:22;12.60;1.00
9167;DHT22;4618;48.818;9.088;2023-02-18T16:57:48;12.60;1.00
9167;DHT22;4618;48.818;9.088;2023-02-18T17:00:15;12.60;1.00
9167;DHT22;4618;48.818;9.088;2023-02-18T17:02:43;12.60;1.00
9167;DHT22;4618;48.818;9.088;2023-02-18T17:05:19;12.50;1.00
9167;DHT22;4618;48.818;9.088;2023-02-18T17:07:45;12.50;1.00
9167;DHT22;4618;48.818;9.088;2023-02-18T17:10:11;12.50;1.00
9167;DHT22;4618;48.818;9.088;2023-02-18T17:12:37;12.60;1.00
9167;DHT22;4618;48.818;9.088;2023-02-18T17:15:30;12.60;1.00
9167;DHT22;4618;48.818;9.088;2023-02-18T17:17:58;12.60;1.00
9167;DHT22;4618;48.818;9.088;2023-02-18T17:20:25;12.60;1.00
9167;DHT22;4618;48.818;9.088;2023-02-18T17:22:50;12.60;1.00
9167;DHT22;4618;48.818;9.088;2023-02-18T17:25:22;12.50;1.00
9167;DHT22;4618;48.818;9.088;2023-02-18T17:27:49;12.50;1.00
9167;DHT22;4618;48.818;9.088;2023-02-18T17:30:15;12.50;1.00
9167;DHT22;4618;48.818;9.088;2023-02-18T17:32:41;12.40;1.00
9167;DHT22;4618;48.818;9.088;2023-02-18T17:35:08;12.50;1.00
9167;DHT22;4618;48.818;9.088;2023-02-18T17:37:34;12.40;1.00
9167;DHT22;4618;48.818;9.088;2023-02-18T17:40:00;12.40;1.00
9167;DHT22;4618;48.818;9.088;2023-02-18T17:42:25;12.40;1.00
9167;DHT22;4618;48.818;9.088;2023-02-18T17:44:51;12.30;1.00
9167;DHT22;4618;48.818;9.088;2023-02-18T17:47:17;12.30;1.00
9167;DHT22;4618;48.818;9.088;2023-02-18T17:49:42;12.20;28.30
9167;DHT22;4618;48.818;9.088;2023-02-18T17:52:22;12.10;87.40
9167;DHT22;4618;48.818;9.088;2023-02-18T17:54:52;12.10;99.90
9167;DHT22;4618;48.818;9.088;2023-02-18T17:57:18;12.10;99.90
9167;DHT22;4618;48.818;9.088;2023-02-18T17:59:43;12.10;99.90
9167;DHT22;4618;48.818;9.088;2023-02-18T18:02:24;12.10;99.90
9167;DHT22;4618;48.818;9.088;2023-02-18T18:04:50;12.10;99.90
9167;DHT22;4618;48.818;9.088;2023-02-18T18:07:16;12.10;99.90
9167;DHT22;4618;48.818;9.088;2023-02-18T18:09:42;12.10;99.90
9167;DHT22;4618;48.818;9.088;2023-02-18T18:12:10;12.10;99.90
9167;DHT22;4618;48.818;9.088;2023-02-18T18:14:38;12.00;99.90
9167;DHT22;4618;48.818;9.088;2023-02-18T18:17:03;12.00;99.90
9167;DHT22;4618;48.818;9.088;2023-02-18T18:19:29;12.00;99.90
9167;DHT22;4618;48.818;9.088;2023-02-18T18:21:56;12.00;99.90